createdAt,value
2022-10-26T00:02:48.513Z,6.85
2022-10-26T00:07:50.541Z,6.78
2022-10-26T00:12:54.066Z,6.74
2022-10-26T00:17:56.072Z,6.70
2022-10-26T00:22:58.169Z,6.68
2022-10-26T00:28:01.459Z,6.52
2022-10-26T00:33:03.196Z,6.56
2022-10-26T00:38:05.308Z,6.51
2022-10-26T00:43:15.672Z,6.37
2022-10-26T00:48:25.371Z,6.38
2022-10-26T00:53:27.769Z,6.39
2022-10-26T00:58:32.305Z,6.39
2022-10-26T01:03:36.387Z,6.33
2022-10-26T01:08:39.407Z,6.13
2022-10-26T01:13:46.128Z,6.25
2022-10-26T01:18:54.220Z,6.21
2022-10-26T01:24:10.124Z,6.08
2022-10-26T01:29:50.924Z,5.94
2022-10-26T01:35:01.811Z,5.94
2022-10-26T01:40:09.904Z,5.92
2022-10-26T01:45:14.273Z,5.88
2022-10-26T01:50:20.145Z,5.95
2022-10-26T01:55:50.486Z,5.88
2022-10-26T02:00:59.377Z,5.79
2022-10-26T02:06:10.119Z,5.75
2022-10-26T02:11:24.780Z,5.81
2022-10-26T02:16:34.649Z,5.73
2022-10-26T02:21:41.920Z,5.88
2022-10-26T02:26:48.559Z,5.93
2022-10-26T02:31:52.059Z,5.83
2022-10-26T02:36:58.788Z,5.85
2022-10-26T02:42:04.689Z,5.85
2022-10-26T02:47:06.740Z,5.78
2022-10-26T02:52:19.132Z,5.68
2022-10-26T02:57:26.175Z,5.64
2022-10-26T03:02:28.781Z,5.61
2022-10-26T03:07:32.255Z,5.58
2022-10-26T03:12:34.237Z,5.61
2022-10-26T03:17:36.108Z,5.58
2022-10-26T03:22:39.436Z,5.53
2022-10-26T03:27:41.150Z,5.42
2022-10-26T03:32:42.835Z,5.48
2022-10-26T03:37:46.956Z,5.24
2022-10-26T03:42:49.465Z,5.38
2022-10-26T03:47:51.355Z,5.26
2022-10-26T03:52:54.884Z,5.23
2022-10-26T03:57:56.571Z,5.47
2022-10-26T04:02:59.825Z,5.53
2022-10-26T04:08:03.958Z,5.53
2022-10-26T04:13:05.933Z,5.47
2022-10-26T04:18:09.899Z,5.39
2022-10-26T04:23:15.933Z,5.34
2022-10-26T04:28:17.851Z,5.23
2022-10-26T04:33:19.886Z,5.19
2022-10-26T04:38:23.449Z,5.12
2022-10-26T04:43:25.397Z,5.11
2022-10-26T04:48:27.022Z,5.15
2022-10-26T04:53:30.482Z,5.09
2022-10-26T04:58:32.467Z,5.09
2022-10-26T05:03:34.552Z,5.00
2022-10-26T05:08:38.187Z,4.97
2022-10-26T05:13:40.325Z,4.95
2022-10-26T05:18:42.225Z,5.00
2022-10-26T05:23:45.853Z,4.90
2022-10-26T05:28:47.876Z,4.96
2022-10-26T05:33:50.218Z,4.87
2022-10-26T05:38:53.722Z,4.96
2022-10-26T05:43:56.073Z,5.11
2022-10-26T05:48:58.571Z,5.11
2022-10-26T05:54:01.919Z,5.18
2022-10-26T05:59:04.773Z,5.21
2022-10-26T06:04:17.894Z,5.16
2022-10-26T06:09:22.483Z,5.22
2022-10-26T06:14:25.135Z,5.23
2022-10-26T06:19:40.133Z,5.26
2022-10-26T06:24:52.331Z,5.37
2022-10-26T06:30:00.871Z,5.44
2022-10-26T06:35:14.536Z,5.46
2022-10-26T06:40:18.937Z,5.53
2022-10-26T06:45:21.707Z,5.61
2022-10-26T06:50:34.287Z,5.61
2022-10-26T06:55:42.254Z,5.62
2022-10-26T07:00:46.322Z,5.75
2022-10-26T07:05:48.975Z,5.87
2022-10-26T07:10:52.682Z,6.04
2022-10-26T07:15:54.693Z,6.19
2022-10-26T07:20:59.122Z,6.36
2022-10-26T07:26:02.430Z,6.54
2022-10-26T07:31:04.556Z,6.75
2022-10-26T07:36:07.030Z,6.99
2022-10-26T07:41:10.488Z,7.33
2022-10-26T07:46:13.199Z,7.69
2022-10-26T07:51:15.364Z,8.02
2022-10-26T07:56:18.851Z,8.26
2022-10-26T08:01:21.706Z,8.53
2022-10-26T08:06:24.851Z,8.83
2022-10-26T08:11:28.332Z,9.08
2022-10-26T08:16:30.182Z,9.34
2022-10-26T08:21:47.168Z,9.62
2022-10-26T08:26:51.009Z,9.76
2022-10-26T08:31:53.267Z,10.05
2022-10-26T08:36:55.277Z,10.29
2022-10-26T08:42:04.595Z,10.54
2022-10-26T08:47:12.166Z,10.80
2022-10-26T08:52:17.929Z,11.06
2022-10-26T08:57:26.050Z,11.35
2022-10-26T09:02:28.113Z,11.55
2022-10-26T09:07:52.178Z,11.83
2022-10-26T09:13:03.748Z,12.04
2022-10-26T09:18:16.963Z,12.36
2022-10-26T09:23:34.265Z,12.55
2022-10-26T09:28:39.230Z,12.84
2022-10-26T09:33:41.305Z,13.21
2022-10-26T09:38:49.084Z,13.63
2022-10-26T09:43:58.854Z,13.98
2022-10-26T09:49:06.762Z,14.17
2022-10-26T09:54:15.496Z,14.08
2022-10-26T09:59:22.512Z,14.62
2022-10-26T10:04:24.485Z,19.18
2022-10-26T10:09:26.811Z,22.44
2022-10-26T10:14:34.749Z,25.71
2022-10-26T10:19:39.490Z,25.70
2022-10-26T10:24:43.440Z,25.83
2022-10-26T10:29:48.611Z,27.12
2022-10-26T10:34:52.342Z,26.84
2022-10-26T10:39:58.495Z,27.94
2022-10-26T10:45:03.028Z,26.57
2022-10-26T10:50:16.024Z,26.89
2022-10-26T10:55:20.897Z,25.78
2022-10-26T11:00:26.040Z,27.62
2022-10-26T11:05:40.369Z,26.57
2022-10-26T11:10:47.669Z,23.32
2022-10-26T11:16:04.715Z,21.42
2022-10-26T11:21:17.818Z,20.13
2022-10-26T11:26:27.226Z,18.77
2022-10-26T11:31:36.285Z,18.10
2022-10-26T11:36:40.430Z,18.43
2022-10-26T11:41:48.869Z,18.40
2022-10-26T11:46:57.390Z,18.50
2022-10-26T11:52:06.319Z,18.62
2022-10-26T11:57:10.797Z,18.58
2022-10-26T12:02:17.426Z,18.45
2022-10-26T12:07:25.298Z,19.02
2022-10-26T12:12:37.126Z,19.30
2022-10-26T12:17:48.906Z,19.20
2022-10-26T12:22:51.907Z,19.15
2022-10-26T12:27:56.127Z,19.23
2022-10-26T12:33:00.840Z,19.47
2022-10-26T12:38:23.549Z,19.54
2022-10-26T12:43:39.775Z,19.71
2022-10-26T12:48:45.100Z,19.31
2022-10-26T12:53:51.838Z,19.25
2022-10-26T12:59:19.486Z,19.47
2022-10-26T13:04:58.413Z,19.19
2022-10-26T13:10:04.274Z,19.20
2022-10-26T13:15:20.913Z,19.48
2022-10-26T13:20:24.653Z,19.22
2022-10-26T13:25:28.696Z,19.11
2022-10-26T13:30:44.441Z,19.01
2022-10-26T13:35:49.549Z,18.89
2022-10-26T13:40:57.300Z,18.95
2022-10-26T13:46:01.442Z,18.97
2022-10-26T13:51:13.844Z,19.02
2022-10-26T13:56:25.098Z,19.04
2022-10-26T14:01:27.628Z,19.31
2022-10-26T14:06:34.397Z,18.93
2022-10-26T14:11:43.413Z,18.61
2022-10-26T14:16:47.117Z,18.49
2022-10-26T14:21:51.170Z,18.62
2022-10-26T14:26:53.300Z,18.47
2022-10-26T14:31:54.937Z,18.13
2022-10-26T14:37:00.855Z,17.76
2022-10-26T14:42:11.472Z,17.52
2022-10-26T14:47:17.912Z,17.34
2022-10-26T14:52:24.088Z,17.25
2022-10-26T14:57:32.819Z,17.51
2022-10-26T15:02:34.561Z,17.67
2022-10-26T15:07:38.564Z,17.71
2022-10-26T15:12:40.666Z,17.54
2022-10-26T15:17:48.829Z,17.31
2022-10-26T15:22:54.682Z,17.16
2022-10-26T15:28:09.867Z,16.92
2022-10-26T15:33:19.703Z,16.58
2022-10-26T15:38:22.996Z,16.27
2022-10-26T15:43:25.503Z,15.87
2022-10-26T15:48:31.485Z,15.48
2022-10-26T15:53:36.261Z,15.13
2022-10-26T15:58:38.382Z,14.92
2022-10-26T16:03:40.502Z,14.66
2022-10-26T16:08:47.819Z,14.46
2022-10-26T16:19:11.718Z,14.41
2022-10-26T16:24:21.328Z,14.42
2022-10-26T16:29:23.648Z,14.23
2022-10-26T16:34:26.014Z,14.20
2022-10-26T16:39:29.654Z,14.19
2022-10-26T16:44:31.713Z,14.09
2022-10-26T16:49:33.624Z,14.55
2022-10-26T16:54:36.903Z,14.95
2022-10-26T16:59:38.953Z,15.06
2022-10-26T17:04:41.098Z,14.91
2022-10-26T17:09:44.126Z,14.72
2022-10-26T17:14:46.268Z,14.93
2022-10-26T17:19:47.920Z,15.08
2022-10-26T17:24:51.651Z,15.16
2022-10-26T17:29:53.493Z,15.19
2022-10-26T17:34:55.677Z,15.27
2022-10-26T17:39:59.499Z,15.04
2022-10-26T17:45:01.627Z,15.05
2022-10-26T17:50:04.013Z,15.03
2022-10-26T17:55:09.904Z,14.79
2022-10-26T18:00:12.911Z,14.77
2022-10-26T18:05:14.675Z,14.82
2022-10-26T18:10:38.024Z,14.73
2022-10-26T18:15:41.472Z,14.76
2022-10-26T18:20:43.492Z,14.66
2022-10-26T18:25:47.259Z,14.53
2022-10-26T18:30:49.337Z,14.43
2022-10-26T18:35:51.254Z,14.04
2022-10-26T18:40:54.885Z,13.81
2022-10-26T18:46:03.433Z,13.66
2022-10-26T18:51:07.267Z,13.44
2022-10-26T18:56:12.348Z,13.27
2022-10-26T19:01:17.257Z,13.12
2022-10-26T19:06:21.133Z,12.97
2022-10-26T19:11:27.580Z,12.84
2022-10-26T19:16:47.925Z,12.71
2022-10-26T19:21:50.574Z,12.47
2022-10-26T19:26:54.421Z,12.29
2022-10-26T19:31:57.028Z,12.23
2022-10-26T19:36:59.197Z,12.08
2022-10-26T19:42:02.451Z,12.00
2022-10-26T19:47:04.142Z,11.99
2022-10-26T19:52:06.166Z,11.90
2022-10-26T19:57:09.327Z,11.84
2022-10-26T20:02:11.249Z,11.62
2022-10-26T20:07:13.032Z,11.53
2022-10-26T20:12:16.079Z,11.46
2022-10-26T20:17:17.803Z,11.47
2022-10-26T20:22:19.508Z,11.33
2022-10-26T20:27:22.915Z,11.20
2022-10-26T20:32:24.637Z,11.04
2022-10-26T20:37:26.986Z,10.96
2022-10-26T20:42:30.827Z,10.83
2022-10-26T20:47:33.319Z,10.74
2022-10-26T20:52:40.982Z,10.74
2022-10-26T20:57:52.472Z,10.71
2022-10-26T21:02:54.240Z,10.54
2022-10-26T21:12:58.921Z,10.36
2022-10-26T21:18:00.629Z,10.20
2022-10-26T21:23:02.371Z,10.24
2022-10-26T21:28:05.944Z,10.16
2022-10-26T21:33:07.609Z,10.00
2022-10-26T21:38:09.333Z,9.93
2022-10-26T21:43:12.796Z,9.85
2022-10-26T21:48:15.125Z,9.74
2022-10-26T21:53:17.030Z,9.70
2022-10-26T21:58:20.124Z,9.71
2022-10-26T22:03:21.994Z,9.70
2022-10-26T22:08:23.881Z,9.68
2022-10-26T22:13:26.930Z,9.63
2022-10-26T22:18:28.642Z,9.53
2022-10-26T22:23:33.226Z,9.48
2022-10-26T22:28:41.536Z,9.48
2022-10-26T22:33:44.862Z,9.45
2022-10-26T22:38:46.615Z,9.38
2022-10-26T22:43:49.983Z,9.28
2022-10-26T22:48:53.925Z,9.29
2022-10-26T22:53:57.350Z,9.22
2022-10-26T22:59:00.769Z,9.20
2022-10-26T23:04:02.608Z,9.09
2022-10-26T23:09:05.782Z,9.13
2022-10-26T23:14:09.094Z,9.01
2022-10-26T23:19:10.931Z,8.93
2022-10-26T23:24:12.589Z,8.99
2022-10-26T23:29:15.872Z,8.95
2022-10-26T23:34:17.522Z,8.93
2022-10-26T23:39:19.337Z,8.99
2022-10-26T23:44:22.345Z,8.85
2022-10-26T23:49:24.079Z,8.94
2022-10-26T23:54:25.749Z,8.89
2022-10-26T23:59:28.788Z,8.84
